createdAt,value
2018-08-30T00:00:55.031Z,14.43
2018-08-30T00:02:04.612Z,14.58
2018-08-30T00:03:14.473Z,14.52
2018-08-30T00:04:24.606Z,14.49
2018-08-30T00:05:34.193Z,14.45
2018-08-30T00:06:43.271Z,14.48
2018-08-30T00:07:53.124Z,14.43
2018-08-30T00:09:03.252Z,14.45
2018-08-30T00:10:12.285Z,14.4
2018-08-30T00:11:22.148Z,14.34
2018-08-30T00:12:32.063Z,14.33
2018-08-30T00:13:42.204Z,14.37
2018-08-30T00:14:51.779Z,14.41
2018-08-30T00:16:01.361Z,14.36
2018-08-30T00:17:11.212Z,14.38
2018-08-30T00:18:21.345Z,14.28
2018-08-30T00:19:31.202Z,14.34
2018-08-30T00:20:41.053Z,14.41
2018-08-30T00:21:50.907Z,14.26
2018-08-30T00:23:01.042Z,14.25
2018-08-30T00:24:10.951Z,14.26
2018-08-30T00:25:21.091Z,14.34
2018-08-30T00:26:31.234Z,14.31
2018-08-30T00:27:41.093Z,14.3
2018-08-30T00:28:50.944Z,14.26
2018-08-30T00:30:00.845Z,14.31
2018-08-30T00:31:10.709Z,14.36
2018-08-30T00:32:20.835Z,14.34
2018-08-30T00:33:30.697Z,14.31
2018-08-30T00:34:40.823Z,14.31
2018-08-30T00:35:50.953Z,14.33
2018-08-30T00:37:00.816Z,14.28
2018-08-30T00:38:10.671Z,14.34
2018-08-30T00:39:20.794Z,14.31
2018-08-30T00:40:30.651Z,14.28
2018-08-30T00:41:40.834Z,14.3
2018-08-30T00:42:50.414Z,14.25
2018-08-30T00:44:00.550Z,14.33
2018-08-30T00:45:10.684Z,14.34
2018-08-30T00:46:20.813Z,14.28
2018-08-30T00:47:30.941Z,14.26
2018-08-30T00:48:40.794Z,14.26
2018-08-30T00:49:50.100Z,14.19
2018-08-30T00:51:00.222Z,14.13
2018-08-30T00:52:09.796Z,14.07
2018-08-30T00:53:19.647Z,14.11
2018-08-30T00:54:29.497Z,14.08
2018-08-30T00:55:39.354Z,14.15
2018-08-30T00:56:49.480Z,14.13
2018-08-30T00:57:59.061Z,14.15
2018-08-30T00:59:09.192Z,14.08
2018-08-30T01:00:19.378Z,14.08
2018-08-30T01:01:29.233Z,14.08
2018-08-30T01:02:39.356Z,14.16
2018-08-30T01:03:49.486Z,14.13
2018-08-30T01:04:59.612Z,14.08
2018-08-30T01:06:08.643Z,14.12
2018-08-30T01:07:18.767Z,14.12
2018-08-30T01:08:28.895Z,14.05
2018-08-30T01:09:38.743Z,14.04
2018-08-30T01:10:48.922Z,14.11
2018-08-30T01:11:59.055Z,14.08
2018-08-30T01:13:08.906Z,14.05
2018-08-30T01:14:19.033Z,14.12
2018-08-30T01:15:29.161Z,14.04
2018-08-30T01:16:39.210Z,13.98
2018-08-30T01:17:49.338Z,13.97
2018-08-30T01:18:59.196Z,13.95
2018-08-30T01:20:09.057Z,13.97
2018-08-30T01:21:18.638Z,13.94
2018-08-30T01:22:28.821Z,13.89
2018-08-30T01:23:38.942Z,13.93
2018-08-30T01:24:49.071Z,13.95
2018-08-30T01:25:58.650Z,13.83
2018-08-30T01:27:08.775Z,13.86
2018-08-30T01:28:20.925Z,13.93
2018-08-30T01:29:31.050Z,13.86
2018-08-30T01:30:40.903Z,13.79
2018-08-30T01:31:50.480Z,13.85
2018-08-30T01:33:00.341Z,13.82
2018-08-30T01:34:10.189Z,13.82
2018-08-30T01:35:19.763Z,13.82
2018-08-30T01:36:29.618Z,13.76
2018-08-30T01:37:39.748Z,13.83
2018-08-30T01:38:49.874Z,13.8
2018-08-30T01:39:59.224Z,13.8
2018-08-30T01:41:08.803Z,13.78
2018-08-30T01:42:18.657Z,13.71
2018-08-30T01:43:28.518Z,13.67
2018-08-30T01:44:38.646Z,13.58
2018-08-30T01:45:48.824Z,13.65
2018-08-30T01:46:58.947Z,13.62
2018-08-30T01:48:08.805Z,13.65
2018-08-30T01:49:18.657Z,13.61
2018-08-30T01:50:28.516Z,13.52
2018-08-30T01:51:38.643Z,13.58
2018-08-30T01:52:48.508Z,13.62
2018-08-30T01:53:58.359Z,13.55
2018-08-30T01:55:08.257Z,13.55
2018-08-30T01:56:18.438Z,13.54
2018-08-30T01:57:28.285Z,13.57
2018-08-30T01:58:38.411Z,13.5
2018-08-30T01:59:48.261Z,13.46
2018-08-30T02:00:58.117Z,13.52
2018-08-30T02:02:07.970Z,13.5
2018-08-30T02:03:18.097Z,13.42
2018-08-30T02:04:28.222Z,13.49
2018-08-30T02:05:38.075Z,13.47
2018-08-30T02:06:48.202Z,13.4
2018-08-30T02:07:58.328Z,13.39
2018-08-30T02:09:08.185Z,13.45
2018-08-30T02:10:18.313Z,13.37
2018-08-30T02:11:28.168Z,13.43
2018-08-30T02:12:38.299Z,13.33
2018-08-30T02:13:47.880Z,13.43
2018-08-30T02:14:58.010Z,13.46
2018-08-30T02:16:08.142Z,13.46
2018-08-30T02:17:18.284Z,13.36
2018-08-30T02:18:28.453Z,13.31
2018-08-30T02:19:38.579Z,13.39
2018-08-30T02:20:48.718Z,13.3
2018-08-30T02:21:58.566Z,13.31
2018-08-30T02:23:08.691Z,13.3
2018-08-30T02:24:18.001Z,13.37
2018-08-30T02:25:28.139Z,13.3
2018-08-30T02:26:38.266Z,13.37
2018-08-30T02:27:48.399Z,13.31
2018-08-30T02:28:58.254Z,13.36
2018-08-30T02:30:07.836Z,13.37
2018-08-30T02:31:17.691Z,13.23
2018-08-30T02:32:27.551Z,13.27
2018-08-30T02:33:37.686Z,13.21
2018-08-30T02:34:47.818Z,13.31
2018-08-30T02:35:57.945Z,13.3
2018-08-30T02:37:07.804Z,13.24
2018-08-30T02:38:17.661Z,13.28
2018-08-30T02:39:27.239Z,13.27
2018-08-30T02:40:37.099Z,13.27
2018-08-30T02:41:47.223Z,13.27
2018-08-30T02:42:56.812Z,13.33
2018-08-30T02:44:06.451Z,13.27
2018-08-30T02:45:16.586Z,13.33
2018-08-30T02:46:26.441Z,13.3
2018-08-30T02:47:36.298Z,13.33
2018-08-30T02:48:46.430Z,13.24
2018-08-30T02:49:56.606Z,13.23
2018-08-30T02:51:06.480Z,13.24
2018-08-30T02:52:16.637Z,13.4
2018-08-30T02:53:26.767Z,13.39
2018-08-30T02:54:36.615Z,13.4
2018-08-30T02:55:46.241Z,13.42
2018-08-30T02:56:56.368Z,13.39
2018-08-30T02:58:06.221Z,13.37
2018-08-30T02:59:16.351Z,13.31
2018-08-30T03:00:26.486Z,13.42
2018-08-30T03:01:36.387Z,13.39
2018-08-30T03:02:46.520Z,13.39
2018-08-30T03:03:56.662Z,13.36
2018-08-30T03:05:06.794Z,13.37
2018-08-30T03:06:16.918Z,13.31
2018-08-30T03:07:27.045Z,13.33
2018-08-30T03:08:36.626Z,13.39
2018-08-30T03:09:46.487Z,13.33
2018-08-30T03:10:56.632Z,13.37
2018-08-30T03:12:06.212Z,13.36
2018-08-30T03:13:16.393Z,13.3
2018-08-30T03:14:26.528Z,13.28
2018-08-30T03:15:36.111Z,13.33
2018-08-30T03:16:46.246Z,13.31
2018-08-30T03:17:55.820Z,13.31
2018-08-30T03:19:06.009Z,13.3
2018-08-30T03:20:15.588Z,13.28
2018-08-30T03:21:25.443Z,13.31
2018-08-30T03:22:35.570Z,13.13
2018-08-30T03:23:45.757Z,13.24
2018-08-30T03:24:55.655Z,13.27
2018-08-30T03:26:05.237Z,13.16
2018-08-30T03:27:15.381Z,13.2
2018-08-30T03:28:25.518Z,13.21
2018-08-30T03:29:35.650Z,13.2
2018-08-30T03:30:45.925Z,13.28
2018-08-30T03:31:56.311Z,13.21
2018-08-30T03:33:06.180Z,13.23
2018-08-30T03:34:15.483Z,13.17
2018-08-30T03:35:25.619Z,13.2
2018-08-30T03:36:35.528Z,13.17
2018-08-30T03:37:45.114Z,13.09
2018-08-30T03:38:54.985Z,13.12
2018-08-30T03:40:05.120Z,13.12
2018-08-30T03:41:14.988Z,13.16
2018-08-30T03:42:24.626Z,13.17
2018-08-30T03:43:34.485Z,13.17
2018-08-30T03:44:44.339Z,13.16
2018-08-30T03:45:54.473Z,13.12
2018-08-30T03:47:04.500Z,13.12
2018-08-30T03:48:14.588Z,13.13
2018-08-30T03:49:24.451Z,13.16
2018-08-30T03:50:34.351Z,13.13
2018-08-30T03:51:44.489Z,13.19
2018-08-30T03:52:54.347Z,13.06
2018-08-30T03:54:03.988Z,13.2
2018-08-30T03:55:13.979Z,13.16
2018-08-30T03:56:24.574Z,13.12
2018-08-30T03:57:34.719Z,13.13
2018-08-30T03:58:44.851Z,13.17
2018-08-30T03:59:54.760Z,13.17
2018-08-30T04:01:04.341Z,13.19
2018-08-30T04:02:14.490Z,13.2
2018-08-30T04:03:24.686Z,13.16
2018-08-30T04:04:34.537Z,13.13
2018-08-30T04:05:44.124Z,13.16
2018-08-30T04:06:54.292Z,13.13
2018-08-30T04:08:04.424Z,13.21
2018-08-30T04:09:14.557Z,13.17
2018-08-30T04:10:24.406Z,13.12
2018-08-30T04:11:34.039Z,13.19
2018-08-30T04:12:44.168Z,13.08
2018-08-30T04:13:54.298Z,13.12
2018-08-30T04:15:03.883Z,13.11
2018-08-30T04:16:13.749Z,13.12
2018-08-30T04:17:23.609Z,13.12
2018-08-30T04:18:33.195Z,13.19
2018-08-30T04:19:43.322Z,13.17
2018-08-30T04:20:53.172Z,13.16
2018-08-30T04:22:03.624Z,13.17
2018-08-30T04:23:13.795Z,13.17
2018-08-30T04:24:23.659Z,13.13
2018-08-30T04:25:33.516Z,13.21
2018-08-30T04:26:43.370Z,13.21
2018-08-30T04:27:53.491Z,13.12
2018-08-30T04:29:03.626Z,13.2
2018-08-30T04:30:13.756Z,13.05
2018-08-30T04:31:23.953Z,12.99
2018-08-30T04:32:33.339Z,13.02
2018-08-30T04:33:42.915Z,12.86
2018-08-30T04:34:52.767Z,12.9
2018-08-30T04:36:02.889Z,12.9
2018-08-30T04:37:13.011Z,12.84
2018-08-30T04:38:22.890Z,12.87
2018-08-30T04:39:32.744Z,12.87
2018-08-30T04:40:42.648Z,12.78
2018-08-30T04:41:52.783Z,12.81
2018-08-30T04:43:02.915Z,12.81
2018-08-30T04:44:13.041Z,12.81
2018-08-30T04:45:22.889Z,12.83
2018-08-30T04:46:32.515Z,12.76
2018-08-30T04:47:42.646Z,12.9
2018-08-30T04:48:52.772Z,12.83
2018-08-30T04:50:03.033Z,12.87
2018-08-30T04:51:13.087Z,12.78
2018-08-30T04:52:22.991Z,12.87
2018-08-30T04:53:32.842Z,12.88
2018-08-30T04:54:42.974Z,12.88
2018-08-30T04:55:52.835Z,12.86
2018-08-30T04:57:02.965Z,12.88
2018-08-30T04:58:12.594Z,12.87
2018-08-30T04:59:22.440Z,12.86
2018-08-30T05:00:32.619Z,12.91
2018-08-30T05:01:42.639Z,12.87
2018-08-30T05:02:53.226Z,12.95
2018-08-30T05:04:03.128Z,12.91
2018-08-30T05:05:12.983Z,13.02
2018-08-30T05:06:23.113Z,12.95
2018-08-30T05:07:33.246Z,13.08
2018-08-30T05:08:43.097Z,13.12
2018-08-30T05:09:53.324Z,13.16
2018-08-30T05:11:03.526Z,13.13
2018-08-30T05:12:13.378Z,13.21
2018-08-30T05:13:23.514Z,13.21
2018-08-30T05:14:33.647Z,13.24
2018-08-30T05:15:43.826Z,13.39
2018-08-30T05:16:53.673Z,13.37
2018-08-30T05:18:02.976Z,13.46
2018-08-30T05:19:12.825Z,13.39
2018-08-30T05:20:22.674Z,13.5
2018-08-30T05:21:32.255Z,13.58
2018-08-30T05:22:41.854Z,13.52
2018-08-30T05:23:51.428Z,13.55
2018-08-30T05:25:01.558Z,13.6
2018-08-30T05:26:11.142Z,13.62
2018-08-30T05:27:21.096Z,13.64
2018-08-30T05:28:30.952Z,13.64
2018-08-30T05:29:40.869Z,13.79
2018-08-30T05:30:51.111Z,13.78
2018-08-30T05:32:01.250Z,13.86
2018-08-30T05:33:11.434Z,13.86
2018-08-30T05:34:21.576Z,13.83
2018-08-30T05:35:31.489Z,13.87
2018-08-30T05:36:41.400Z,13.85
2018-08-30T05:37:51.255Z,13.8
2018-08-30T05:39:01.152Z,13.75
2018-08-30T05:40:10.180Z,13.79
2018-08-30T05:41:20.043Z,13.86
2018-08-30T05:42:30.183Z,13.78
2018-08-30T05:43:40.041Z,13.85
2018-08-30T05:44:50.564Z,13.97
2018-08-30T05:46:00.692Z,13.87
2018-08-30T05:47:10.266Z,13.8
2018-08-30T05:48:19.849Z,13.91
2018-08-30T05:49:28.877Z,13.79
2018-08-30T05:50:39.059Z,13.82
2018-08-30T05:51:48.915Z,13.7
2018-08-30T05:52:58.488Z,13.75
2018-08-30T05:54:07.788Z,13.7
2018-08-30T05:55:17.636Z,13.8
2018-08-30T05:56:27.815Z,13.8
2018-08-30T05:57:37.665Z,13.76
2018-08-30T05:58:47.798Z,13.83
2018-08-30T05:59:57.923Z,13.8
2018-08-30T06:01:07.227Z,14
2018-08-30T06:02:16.855Z,14
2018-08-30T06:03:26.978Z,14.07
2018-08-30T06:04:36.828Z,14.12
2018-08-30T06:05:46.442Z,14.16
2018-08-30T06:06:56.568Z,14.23
2018-08-30T06:08:06.197Z,14.26
2018-08-30T06:09:15.805Z,14.36
2018-08-30T06:10:25.940Z,14.33
2018-08-30T06:11:36.065Z,14.33
2018-08-30T06:12:45.915Z,14.44
2018-08-30T06:13:55.821Z,14.45
2018-08-30T06:15:05.127Z,14.49
2018-08-30T06:16:15.256Z,14.56
2018-08-30T06:17:24.834Z,14.58
2018-08-30T06:18:34.962Z,14.61
2018-08-30T06:19:45.139Z,14.58
2018-08-30T06:20:55.298Z,14.7
2018-08-30T06:22:05.461Z,14.63
2018-08-30T06:23:15.323Z,14.67
2018-08-30T06:24:25.455Z,14.68
2018-08-30T06:25:35.652Z,14.63
2018-08-30T06:26:45.340Z,14.49
2018-08-30T06:27:55.774Z,14.68
2018-08-30T06:29:05.640Z,14.63
2018-08-30T06:30:15.317Z,14.53
2018-08-30T06:31:24.411Z,14.59
2018-08-30T06:32:34.539Z,14.52
2018-08-30T06:33:44.505Z,14.52
2018-08-30T06:34:54.651Z,14.51
2018-08-30T06:36:04.789Z,14.55
2018-08-30T06:37:14.419Z,14.58
2018-08-30T06:38:34.947Z,14.61
2018-08-30T06:39:56.978Z,14.58
2018-08-30T06:41:08.673Z,14.61
2018-08-30T06:42:20.451Z,14.66
2018-08-30T06:43:30.576Z,14.67
2018-08-30T06:44:40.702Z,14.66
2018-08-30T06:45:50.835Z,14.61
2018-08-30T06:47:00.969Z,14.73
2018-08-30T06:48:11.140Z,14.77
2018-08-30T06:49:20.991Z,14.78
2018-08-30T06:50:30.847Z,14.89
2018-08-30T06:51:40.708Z,14.73
2018-08-30T06:52:50.565Z,14.73
2018-08-30T06:54:00.749Z,14.9
2018-08-30T06:55:10.600Z,14.93
2018-08-30T06:56:21.058Z,14.94
2018-08-30T06:57:31.112Z,14.94
2018-08-30T06:58:41.360Z,14.97
2018-08-30T06:59:51.267Z,14.97
2018-08-30T07:01:01.119Z,15.1
2018-08-30T07:02:11.245Z,15.04
2018-08-30T07:03:21.370Z,15.19
2018-08-30T07:04:30.962Z,15.14
2018-08-30T07:05:40.870Z,15.23
2018-08-30T07:06:50.728Z,15.17
2018-08-30T07:08:00.621Z,15.14
2018-08-30T07:09:10.838Z,15.29
2018-08-30T07:10:20.693Z,15.3
2018-08-30T07:11:30.653Z,15.3
2018-08-30T07:12:40.506Z,15.32
2018-08-30T07:13:50.636Z,15.36
2018-08-30T07:15:00.614Z,15.51
2018-08-30T07:16:10.955Z,15.63
2018-08-30T07:17:21.132Z,15.72
2018-08-30T07:18:31.258Z,15.7
2018-08-30T07:19:41.387Z,15.7
2018-08-30T07:20:51.515Z,15.67
2018-08-30T07:22:01.431Z,15.75
2018-08-30T07:23:11.398Z,15.85
2018-08-30T07:24:21.390Z,15.83
2018-08-30T07:25:31.517Z,15.8
2018-08-30T07:26:41.374Z,15.81
2018-08-30T07:27:51.221Z,15.81
2018-08-30T07:29:00.574Z,15.8
2018-08-30T07:30:10.701Z,15.83
2018-08-30T07:31:20.003Z,15.87
2018-08-30T07:32:29.583Z,15.81
2018-08-30T07:33:39.447Z,15.8
2018-08-30T07:34:50.077Z,15.76
2018-08-30T07:36:00.586Z,15.66
2018-08-30T07:37:10.723Z,15.62
2018-08-30T07:38:20.849Z,15.65
2018-08-30T07:39:30.708Z,15.52
2018-08-30T07:40:40.015Z,15.62
2018-08-30T07:41:49.877Z,15.62
2018-08-30T07:42:59.742Z,15.65
2018-08-30T07:44:09.677Z,15.63
2018-08-30T07:45:20.086Z,15.63
2018-08-30T07:46:30.263Z,15.67
2018-08-30T07:47:40.395Z,15.48
2018-08-30T07:48:50.252Z,15.47
2018-08-30T07:50:00.387Z,15.51
2018-08-30T07:51:09.825Z,15.62
2018-08-30T07:52:19.406Z,15.62
2018-08-30T07:53:29.532Z,15.57
2018-08-30T07:54:39.700Z,15.62
2018-08-30T07:55:49.238Z,15.66
2018-08-30T07:56:58.814Z,15.73
2018-08-30T07:58:08.942Z,15.73
2018-08-30T07:59:18.811Z,15.73
2018-08-30T08:00:28.937Z,15.76
2018-08-30T08:01:39.072Z,15.78
2018-08-30T08:02:48.931Z,15.73
2018-08-30T08:03:58.787Z,15.81
2018-08-30T08:05:08.639Z,15.75
2018-08-30T08:06:18.495Z,15.83
2018-08-30T08:07:28.622Z,15.69
2018-08-30T08:08:38.474Z,15.37
2018-08-30T08:09:48.337Z,15.57
2018-08-30T08:10:58.192Z,15.62
2018-08-30T08:12:07.897Z,15.5
2018-08-30T08:13:18.021Z,15.43
2018-08-30T08:14:27.874Z,15.43
2018-08-30T08:15:38.006Z,15.37
2018-08-30T08:16:48.133Z,15.35
2018-08-30T08:17:57.169Z,15.3
2018-08-30T08:19:07.235Z,15.33
2018-08-30T08:20:16.716Z,15.43
2018-08-30T08:21:26.846Z,15.12
2018-08-30T08:22:36.973Z,15.19
2018-08-30T08:23:47.104Z,15.23
2018-08-30T08:24:56.986Z,15.08
2018-08-30T08:26:06.583Z,15.15
2018-08-30T08:27:16.159Z,15.07
2018-08-30T08:28:26.024Z,14.96
2018-08-30T08:29:35.881Z,14.97
2018-08-30T08:30:46.007Z,14.94
2018-08-30T08:31:55.868Z,14.94
2018-08-30T08:33:06.009Z,14.86
2018-08-30T08:34:15.860Z,14.89
2018-08-30T08:35:25.727Z,14.7
2018-08-30T08:36:35.580Z,14.79
2018-08-30T08:37:45.722Z,14.71
2018-08-30T08:38:55.853Z,14.87
2018-08-30T08:40:05.707Z,14.77
2018-08-30T08:41:15.839Z,14.73
2018-08-30T08:42:25.686Z,14.67
2018-08-30T08:43:35.812Z,14.74
2018-08-30T08:44:45.660Z,14.74
2018-08-30T08:45:55.525Z,14.61
2018-08-30T08:47:05.651Z,14.81
2018-08-30T08:48:15.514Z,14.92
2018-08-30T08:49:25.647Z,14.87
2018-08-30T08:50:35.231Z,15.04
2018-08-30T08:51:45.359Z,15.17
2018-08-30T08:52:55.486Z,15.22
2018-08-30T08:54:05.613Z,15.25
2018-08-30T08:55:15.190Z,15.32
2018-08-30T08:56:25.047Z,15.41
2018-08-30T08:57:34.895Z,15.41
2018-08-30T08:58:45.191Z,15.44
2018-08-30T08:59:55.155Z,15.41
2018-08-30T09:01:04.742Z,15.45
2018-08-30T09:02:14.922Z,15.54
2018-08-30T09:03:25.047Z,15.62
2018-08-30T09:04:34.940Z,15.6
2018-08-30T09:05:44.793Z,15.57
2018-08-30T09:06:55.054Z,15.65
2018-08-30T09:08:05.191Z,15.78
2018-08-30T09:09:15.068Z,15.78
2018-08-30T09:10:24.922Z,15.94
2018-08-30T09:11:35.047Z,15.96
2018-08-30T09:12:45.177Z,16.03
2018-08-30T09:13:55.307Z,16.17
2018-08-30T09:15:04.883Z,16.29
2018-08-30T09:16:15.008Z,16.31
2018-08-30T09:17:24.857Z,16.21
2018-08-30T09:18:35.417Z,16.26
2018-08-30T09:19:47.325Z,16.31
2018-08-30T09:20:56.910Z,16.25
2018-08-30T09:22:06.768Z,16.17
2018-08-30T09:23:16.814Z,16.26
2018-08-30T09:24:26.668Z,16.12
2018-08-30T09:25:36.526Z,16.06
2018-08-30T09:26:46.588Z,16.08
2018-08-30T09:27:56.347Z,16
2018-08-30T09:29:05.929Z,15.99
2018-08-30T09:30:15.785Z,16.02
2018-08-30T09:31:25.641Z,16.03
2018-08-30T09:32:35.770Z,15.96
2018-08-30T09:33:45.721Z,15.96
2018-08-30T09:34:55.710Z,15.94
2018-08-30T09:36:05.567Z,16.05
2018-08-30T09:37:15.743Z,15.99
2018-08-30T09:38:25.882Z,15.94
2018-08-30T09:39:35.734Z,15.88
2018-08-30T09:40:45.592Z,15.87
2018-08-30T09:41:55.725Z,16.05
2018-08-30T09:43:05.581Z,16.08
2018-08-30T09:44:15.442Z,16.21
2018-08-30T09:45:25.020Z,16.16
2018-08-30T09:46:35.144Z,16.03
2018-08-30T09:47:45.280Z,16.18
2018-08-30T09:48:55.409Z,16.16
2018-08-30T09:50:05.537Z,16.28
2018-08-30T09:51:15.673Z,16.43
2018-08-30T09:52:25.800Z,16.57
2018-08-30T09:53:35.653Z,16.54
2018-08-30T09:54:45.781Z,16.55
2018-08-30T09:55:56.126Z,16.61
2018-08-30T09:57:06.769Z,16.62
2018-08-30T09:58:17.800Z,16.84
2018-08-30T09:59:27.930Z,16.98
2018-08-30T10:00:38.059Z,16.98
2018-08-30T10:01:47.639Z,16.68
2018-08-30T10:02:57.238Z,16.66
2018-08-30T10:04:06.815Z,16.84
2018-08-30T10:05:17.042Z,16.72
2018-08-30T10:06:27.194Z,16.92
2018-08-30T10:07:36.772Z,17.1
2018-08-30T10:08:46.651Z,17.23
2018-08-30T10:09:56.779Z,17.32
2018-08-30T10:11:06.637Z,17.39
2018-08-30T10:12:16.760Z,17.19
2018-08-30T10:13:26.337Z,17.37
2018-08-30T10:14:35.912Z,17.44
2018-08-30T10:15:46.148Z,17.27
2018-08-30T10:16:56.328Z,17.28
2018-08-30T10:18:06.202Z,17.34
2018-08-30T10:19:16.057Z,17.44
2018-08-30T10:20:25.637Z,17.46
2018-08-30T10:21:36.101Z,17.35
2018-08-30T10:22:46.479Z,17.37
2018-08-30T10:23:56.058Z,17.32
2018-08-30T10:25:05.917Z,17.27
2018-08-30T10:26:15.780Z,17.3
2018-08-30T10:27:25.668Z,17.34
2018-08-30T10:28:35.258Z,17.27
2018-08-30T10:29:45.161Z,17.27
2018-08-30T10:30:55.016Z,17.32
2018-08-30T10:32:04.892Z,17.38
2018-08-30T10:33:14.753Z,17.35
2018-08-30T10:34:24.892Z,17.12
2018-08-30T10:35:34.753Z,16.92
2018-08-30T10:36:44.620Z,16.83
2018-08-30T10:37:54.823Z,16.68
2018-08-30T10:39:04.971Z,16.66
2018-08-30T10:40:14.574Z,16.68
2018-08-30T10:41:24.427Z,16.77
2018-08-30T10:42:34.283Z,16.68
2018-08-30T10:43:44.490Z,16.65
2018-08-30T10:44:54.366Z,16.72
2018-08-30T10:46:04.225Z,16.64
2018-08-30T10:47:14.081Z,16.82
2018-08-30T10:48:23.387Z,16.86
2018-08-30T10:49:33.902Z,16.94
2018-08-30T10:50:44.512Z,16.95
2018-08-30T10:51:54.646Z,16.99
2018-08-30T10:53:04.497Z,16.94
2018-08-30T10:54:14.627Z,16.94
2018-08-30T10:55:24.203Z,16.97
2018-08-30T10:56:34.073Z,16.84
2018-08-30T10:57:44.202Z,16.77
2018-08-30T10:58:54.063Z,16.76
2018-08-30T11:00:03.921Z,16.83
2018-08-30T11:01:14.053Z,16.87
2018-08-30T11:02:24.179Z,16.86
2018-08-30T11:03:33.767Z,16.86
2018-08-30T11:04:43.943Z,16.77
2018-08-30T11:05:53.800Z,16.91
2018-08-30T11:07:03.669Z,16.87
2018-08-30T11:08:14.039Z,16.84
2018-08-30T11:09:24.001Z,16.82
2018-08-30T11:10:33.855Z,16.89
2018-08-30T11:11:43.989Z,16.83
2018-08-30T11:12:54.077Z,16.84
2018-08-30T11:14:04.102Z,16.84
2018-08-30T11:15:14.233Z,17.07
2018-08-30T11:16:24.085Z,17.23
2018-08-30T11:17:34.209Z,17.39
2018-08-30T11:18:44.059Z,17.82
2018-08-30T11:19:53.920Z,18.06
2018-08-30T11:21:03.773Z,18.34
2018-08-30T11:22:13.405Z,18.51
2018-08-30T11:23:23.529Z,18.53
2018-08-30T11:24:33.677Z,18.55
2018-08-30T11:25:43.888Z,18.68
2018-08-30T11:26:54.127Z,18.73
2018-08-30T11:28:04.314Z,19.23
2018-08-30T11:29:13.620Z,19.77
2018-08-30T11:30:23.204Z,20.26
2018-08-30T11:31:33.331Z,20.08
2018-08-30T11:32:43.186Z,20.44
2018-08-30T11:33:53.366Z,20.66
2018-08-30T11:35:03.222Z,21.05
2018-08-30T11:36:13.351Z,21.72
2018-08-30T11:37:23.490Z,22.06
2018-08-30T11:38:33.346Z,22.56
2018-08-30T11:39:43.535Z,23.01
2018-08-30T11:40:53.130Z,22.31
2018-08-30T11:42:02.990Z,21.91
2018-08-30T11:43:13.247Z,22.15
2018-08-30T11:44:23.701Z,22.7
2018-08-30T11:45:33.897Z,22.56
2018-08-30T11:46:44.043Z,22.98
2018-08-30T11:47:53.908Z,23.44
2018-08-30T11:49:03.773Z,23.26
2018-08-30T11:50:13.640Z,23.33
2018-08-30T11:51:23.261Z,23.54
2018-08-30T11:52:32.603Z,22.91
2018-08-30T11:53:42.962Z,23.14
2018-08-30T11:54:52.837Z,23.62
2018-08-30T11:56:03.149Z,23.67
2018-08-30T11:57:13.361Z,23.92
2018-08-30T11:58:23.558Z,23.79
2018-08-30T11:59:33.158Z,24.04
2018-08-30T12:00:43.094Z,23.23
2018-08-30T12:01:53.411Z,22.56
2018-08-30T12:03:03.605Z,22.67
2018-08-30T12:04:13.217Z,23.04
2018-08-30T12:05:22.513Z,23.34
2018-08-30T12:06:32.652Z,23.25
2018-08-30T12:07:42.802Z,23.58
2018-08-30T12:08:52.798Z,24.06
2018-08-30T12:10:02.386Z,24.48
2018-08-30T12:11:13.001Z,25.01
2018-08-30T12:12:23.669Z,25.44
2018-08-30T12:13:33.550Z,26.07
2018-08-30T12:14:43.783Z,26.42
2018-08-30T12:15:53.922Z,26.73
2018-08-30T12:17:03.235Z,25.91
2018-08-30T12:18:12.855Z,26.41
2018-08-30T12:19:22.721Z,26.71
2018-08-30T12:20:32.973Z,26.82
2018-08-30T12:21:43.488Z,26.66
2018-08-30T12:22:53.637Z,26.71
2018-08-30T12:24:03.506Z,26.68
2018-08-30T12:25:13.687Z,25.89
2018-08-30T12:26:23.878Z,26.23
2018-08-30T12:27:34.020Z,25.56
2018-08-30T12:28:44.173Z,25.71
2018-08-30T12:29:54.607Z,26.07
2018-08-30T12:31:04.531Z,25.7
2018-08-30T12:32:15.229Z,26.04
2018-08-30T12:33:25.861Z,25.16
2018-08-30T12:34:36.436Z,24.37
2018-08-30T12:35:47.664Z,24.13
2018-08-30T12:36:58.614Z,25.09
2018-08-30T12:38:08.970Z,25.76
2018-08-30T12:39:18.741Z,25.81
2018-08-30T12:40:29.596Z,26.01
2018-08-30T12:41:39.857Z,25.95
2018-08-30T12:42:50.655Z,25
2018-08-30T12:44:02.326Z,24.81
2018-08-30T12:45:12.448Z,25.43
2018-08-30T12:46:22.916Z,26.06
2018-08-30T12:47:33.634Z,26.64
2018-08-30T12:48:43.260Z,27.08
2018-08-30T12:49:53.306Z,27.5
2018-08-30T12:51:04.152Z,28.18
2018-08-30T12:52:15.137Z,28.23
2018-08-30T12:53:25.861Z,26.85
2018-08-30T12:54:36.050Z,27.13
2018-08-30T12:55:47.389Z,27.85
2018-08-30T12:56:58.702Z,28.09
2018-08-30T12:58:09.505Z,28.01
2018-08-30T12:59:20.680Z,28.43
2018-08-30T13:00:31.473Z,29.07
2018-08-30T13:01:43.226Z,29.57
2018-08-30T13:02:54.260Z,30.06
2018-08-30T13:04:05.467Z,30.56
2018-08-30T13:05:17.833Z,30.96
2018-08-30T13:06:29.197Z,31.23
2018-08-30T13:07:41.217Z,31.6
2018-08-30T13:08:53.873Z,31.64
2018-08-30T13:10:07.358Z,31.52
2018-08-30T13:11:19.512Z,31.85
2018-08-30T13:12:32.799Z,32.07
2018-08-30T13:13:43.269Z,31.87
2018-08-30T13:14:56.135Z,32.24
2018-08-30T13:16:08.210Z,32.64
2018-08-30T13:17:19.034Z,32.22
2018-08-30T13:18:31.527Z,31.95
2018-08-30T13:19:44.238Z,31.59
2018-08-30T13:20:57.848Z,32.02
2018-08-30T13:22:11.502Z,32.41
2018-08-30T13:23:24.387Z,32.72
2018-08-30T13:24:35.681Z,33.15
2018-08-30T13:25:48.711Z,33.39
2018-08-30T13:27:01.617Z,33.57
2018-08-30T13:28:13.856Z,32.97
2018-08-30T13:29:26.938Z,32.44
2018-08-30T13:30:40.836Z,32.86
2018-08-30T13:31:54.229Z,33.22
2018-08-30T13:33:07.050Z,33.69
2018-08-30T13:34:28.241Z,34.09
2018-08-30T13:35:41.940Z,34.35
2018-08-30T13:36:56.184Z,34.6
2018-08-30T13:38:11.112Z,34.06
2018-08-30T13:39:26.237Z,33.22
2018-08-30T13:40:39.989Z,33.16
2018-08-30T13:41:53.488Z,33.76
2018-08-30T13:43:07.188Z,34.13
2018-08-30T13:44:19.873Z,34.43
2018-08-30T13:45:32.465Z,34.6
2018-08-30T13:46:45.463Z,34.69
2018-08-30T13:47:59.201Z,34.7
2018-08-30T13:49:13.305Z,34.93
2018-08-30T13:50:25.049Z,34.58
2018-08-30T13:51:39.084Z,34.85
2018-08-30T13:52:53.414Z,35.3
2018-08-30T13:54:06.600Z,35.66
2018-08-30T13:55:19.479Z,36
2018-08-30T13:56:33.491Z,36.32
2018-08-30T13:57:48.722Z,35.91
2018-08-30T13:59:04.326Z,34.56
2018-08-30T14:00:19.562Z,33.94
2018-08-30T14:01:35.436Z,34.21
2018-08-30T14:02:49.124Z,34.4
2018-08-30T14:04:00.482Z,34.83
2018-08-30T14:05:11.457Z,35.2
2018-08-30T14:06:24.790Z,35.66
2018-08-30T14:07:38.032Z,35.93
2018-08-30T14:08:50.133Z,36.03
2018-08-30T14:10:03.416Z,36.48
2018-08-30T14:11:17.030Z,36.8
2018-08-30T14:12:30.110Z,36.88
2018-08-30T14:13:41.681Z,37.15
2018-08-30T14:14:54.325Z,37.38
2018-08-30T14:16:05.592Z,37.6
2018-08-30T14:17:15.830Z,37.45
2018-08-30T14:18:26.123Z,37.06
2018-08-30T14:19:36.455Z,36.75
2018-08-30T14:20:46.324Z,36.99
2018-08-30T14:21:56.025Z,37.31
2018-08-30T14:23:05.732Z,37.4
2018-08-30T14:24:15.703Z,37.21
2018-08-30T14:25:26.169Z,37.33
2018-08-30T14:26:36.409Z,37.53
2018-08-30T14:27:46.911Z,37.73
2018-08-30T14:28:57.171Z,37.91
2018-08-30T14:30:07.349Z,38.01
2018-08-30T14:31:16.980Z,38.32
2018-08-30T14:32:26.861Z,38.54
2018-08-30T14:33:37.042Z,38.73
2018-08-30T14:34:47.053Z,38.56
2018-08-30T14:35:57.308Z,38.87
2018-08-30T14:37:07.308Z,39.01
2018-08-30T14:38:17.600Z,39.15
2018-08-30T14:39:26.996Z,39.19
2018-08-30T14:40:37.223Z,39.32
2018-08-30T14:41:47.690Z,39.32
2018-08-30T14:42:58.137Z,39.44
2018-08-30T14:44:07.741Z,39.56
2018-08-30T14:45:17.508Z,39.51
2018-08-30T14:46:27.310Z,39.25
2018-08-30T14:47:37.473Z,38.81
2018-08-30T14:48:47.729Z,38.77
2018-08-30T14:49:58.064Z,38.72
2018-08-30T14:51:08.066Z,38.48
2018-08-30T14:52:18.303Z,38.29
2018-08-30T14:53:29.049Z,37.86
2018-08-30T14:54:40.402Z,37.6
2018-08-30T14:55:50.503Z,37.33
2018-08-30T14:57:00.617Z,37.4
2018-08-30T14:58:10.215Z,37.34
2018-08-30T14:59:20.352Z,37.23
2018-08-30T15:00:31.259Z,37.06
2018-08-30T15:01:41.561Z,36.53
2018-08-30T15:02:51.431Z,36.57
2018-08-30T15:04:01.738Z,36.65
2018-08-30T15:05:12.224Z,36.62
2018-08-30T15:06:22.600Z,36.75
2018-08-30T15:07:32.199Z,36.6
2018-08-30T15:08:42.071Z,36.62